sensor_id;sensor_type;location;lat;lon;timestamp;pressure;altitude;pressure_sealevel;temperature;humidity
80945;BME280;70400;50.934;11.590;2023-09-19T00:00:30;99336.88;;;16.78;83.20
80945;BME280;70400;50.934;11.590;2023-09-19T00:01:21;99332.81;;;16.82;82.85
80945;BME280;70400;50.934;11.590;2023-09-19T00:02:13;99337.69;;;16.79;83.29
80945;BME280;70400;50.934;11.590;2023-09-19T00:03:05;99341.31;;;16.71;83.52
80945;BME280;70400;50.934;11.590;2023-09-19T00:03:56;99337.84;;;16.70;83.64
80945;BME280;70400;50.934;11.590;2023-09-19T00:04:49;99341.75;;;16.75;83.67
80945;BME280;70400;50.934;11.590;2023-09-19T00:05:40;99341.38;;;16.78;82.66
80945;BME280;70400;50.934;11.590;2023-09-19T00:06:36;99336.06;;;16.78;83.09
80945;BME280;70400;50.934;11.590;2023-09-19T00:07:27;99344.69;;;16.80;83.05
80945;BME280;70400;50.934;11.590;2023-09-19T00:08:18;99340.56;;;16.84;82.74
80945;BME280;70400;50.934;11.590;2023-09-19T00:09:15;99344.81;;;16.71;82.98
80945;BME280;70400;50.934;11.590;2023-09-19T00:10:06;99344.97;;;16.63;83.14
80945;BME280;70400;50.934;11.590;2023-09-19T00:11:00;99340.06;;;16.60;83.59
80945;BME280;70400;50.934;11.590;2023-09-19T00:11:56;99344.38;;;16.68;83.57
80945;BME280;70400;50.934;11.590;2023-09-19T00:12:47;99349.06;;;16.59;83.80
80945;BME280;70400;50.934;11.590;2023-09-19T00:13:38;99345.56;;;16.52;83.90
80945;BME280;70400;50.934;11.590;2023-09-19T00:14:29;99355.97;;;16.47;84.09
80945;BME280;70400;50.934;11.590;2023-09-19T00:15:20;99347.75;;;16.42;83.88
80945;BME280;70400;50.934;11.590;2023-09-19T00:16:11;99348.97;;;16.39;84.76
80945;BME280;70400;50.934;11.590;2023-09-19T00:17:03;99351.81;;;16.38;84.54
80945;BME280;70400;50.934;11.590;2023-09-19T00:17:59;99340.31;;;16.31;84.52
80945;BME280;70400;50.934;11.590;2023-09-19T00:18:50;99353.81;;;16.29;84.82
80945;BME280;70400;50.934;11.590;2023-09-19T00:19:41;99344.81;;;16.30;84.84
80945;BME280;70400;50.934;11.590;2023-09-19T00:20:35;99350.19;;;16.37;84.54
80945;BME280;70400;50.934;11.590;2023-09-19T00:21:26;99346.25;;;16.33;84.60
80945;BME280;70400;50.934;11.590;2023-09-19T00:22:18;99347.13;;;16.40;84.46
80945;BME280;70400;50.934;11.590;2023-09-19T00:23:09;99346.69;;;16.36;84.82
80945;BME280;70400;50.934;11.590;2023-09-19T00:24:00;99352.78;;;16.30;85.00
80945;BME280;70400;50.934;11.590;2023-09-19T00:24:51;99353.59;;;16.31;84.67
80945;BME280;70400;50.934;11.590;2023-09-19T00:25:42;99347.91;;;16.34;84.45
80945;BME280;70400;50.934;11.590;2023-09-19T00:26:32;99348.53;;;16.36;84.66
80945;BME280;70400;50.934;11.590;2023-09-19T00:27:24;99352.69;;;16.45;84.64
80945;BME280;70400;50.934;11.590;2023-09-19T00:28:15;99349.38;;;16.36;85.10
80945;BME280;70400;50.934;11.590;2023-09-19T00:29:08;99343.06;;;16.44;85.02
80945;BME280;70400;50.934;11.590;2023-09-19T00:29:59;99348.16;;;16.45;84.53
80945;BME280;70400;50.934;11.590;2023-09-19T00:30:51;99349.16;;;16.38;84.33
80945;BME280;70400;50.934;11.590;2023-09-19T00:31:44;99352.44;;;16.40;84.70
80945;BME280;70400;50.934;11.590;2023-09-19T00:32:35;99352.38;;;16.26;84.93
80945;BME280;70400;50.934;11.590;2023-09-19T00:33:28;99350.34;;;16.28;85.50
80945;BME280;70400;50.934;11.590;2023-09-19T00:34:24;99363.25;;;16.32;85.42
80945;BME280;70400;50.934;11.590;2023-09-19T00:35:15;99352.78;;;16.23;85.29
80945;BME280;70400;50.934;11.590;2023-09-19T00:36:06;99353.53;;;16.17;85.65
80945;BME280;70400;50.934;11.590;2023-09-19T00:36:57;99357.97;;;16.10;85.75
80945;BME280;70400;50.934;11.590;2023-09-19T00:37:48;99358.81;;;16.11;85.54
80945;BME280;70400;50.934;11.590;2023-09-19T00:38:39;99358.03;;;16.17;85.13
80945;BME280;70400;50.934;11.590;2023-09-19T00:39:30;99362.69;;;16.08;84.96
80945;BME280;70400;50.934;11.590;2023-09-19T00:40:22;99359.97;;;16.01;85.44
80945;BME280;70400;50.934;11.590;2023-09-19T00:41:14;99361.59;;;15.96;85.89
80945;BME280;70400;50.934;11.590;2023-09-19T00:42:05;99358.44;;;15.86;86.08
80945;BME280;70400;50.934;11.590;2023-09-19T00:42:59;99359.06;;;15.88;86.29
80945;BME280;70400;50.934;11.590;2023-09-19T00:43:50;99350.69;;;15.91;86.34
80945;BME280;70400;50.934;11.590;2023-09-19T00:44:42;99361.59;;;15.96;86.26
80945;BME280;70400;50.934;11.590;2023-09-19T00:45:33;99363.03;;;15.98;86.11
80945;BME280;70400;50.934;11.590;2023-09-19T00:46:24;99364.28;;;16.02;86.23
80945;BME280;70400;50.934;11.590;2023-09-19T00:47:17;99362.25;;;16.04;85.68
80945;BME280;70400;50.934;11.590;2023-09-19T00:48:09;99358.13;;;16.02;85.19
80945;BME280;70400;50.934;11.590;2023-09-19T00:49:00;99366.25;;;15.94;85.94
80945;BME280;70400;50.934;11.590;2023-09-19T00:49:53;99356.03;;;15.91;86.06
80945;BME280;70400;50.934;11.590;2023-09-19T00:50:44;99361.09;;;15.86;85.52
80945;BME280;70400;50.934;11.590;2023-09-19T00:51:36;99353.94;;;15.86;86.17
80945;BME280;70400;50.934;11.590;2023-09-19T00:52:27;99355.00;;;15.92;85.83
80945;BME280;70400;50.934;11.590;2023-09-19T00:53:21;99357.66;;;15.92;85.99
80945;BME280;70400;50.934;11.590;2023-09-19T00:54:13;99360.13;;;15.93;86.01
80945;BME280;70400;50.934;11.590;2023-09-19T00:55:10;99359.25;;;15.86;86.23
80945;BME280;70400;50.934;11.590;2023-09-19T00:56:03;99359.81;;;15.81;86.16
80945;BME280;70400;50.934;11.590;2023-09-19T00:56:55;99350.22;;;15.80;85.89
80945;BME280;70400;50.934;11.590;2023-09-19T00:57:47;99352.06;;;15.80;85.79
80945;BME280;70400;50.934;11.590;2023-09-19T00:58:40;99352.91;;;15.87;85.91
80945;BME280;70400;50.934;11.590;2023-09-19T00:59:31;99355.63;;;15.94;85.52
80945;BME280;70400;50.934;11.590;2023-09-19T01:00:22;99357.47;;;15.93;85.49
80945;BME280;70400;50.934;11.590;2023-09-19T01:01:14;99357.03;;;15.90;85.23
80945;BME280;70400;50.934;11.590;2023-09-19T01:02:06;99358.69;;;15.91;85.79
80945;BME280;70400;50.934;11.590;2023-09-19T01:02:58;99360.88;;;15.87;86.03
80945;BME280;70400;50.934;11.590;2023-09-19T01:03:49;99358.44;;;15.86;85.71
80945;BME280;70400;50.934;11.590;2023-09-19T01:04:40;99365.38;;;15.87;85.87
80945;BME280;70400;50.934;11.590;2023-09-19T01:05:33;99367.41;;;15.84;85.74
80945;BME280;70400;50.934;11.590;2023-09-19T01:06:24;99365.53;;;15.78;85.92
80945;BME280;70400;50.934;11.590;2023-09-19T01:07:15;99367.63;;;15.83;85.38
80945;BME280;70400;50.934;11.590;2023-09-19T01:08:06;99368.63;;;15.82;85.29
80945;BME280;70400;50.934;11.590;2023-09-19T01:08:57;99370.44;;;15.75;85.79
80945;BME280;70400;50.934;11.590;2023-09-19T01:09:48;99367.63;;;15.83;85.96
80945;BME280;70400;50.934;11.590;2023-09-19T01:10:50;99366.41;;;15.86;86.18
80945;BME280;70400;50.934;11.590;2023-09-19T01:11:46;99369.00;;;15.79;86.63
80945;BME280;70400;50.934;11.590;2023-09-19T01:15:08;99367.47;;;15.48;87.54
80945;BME280;70400;50.934;11.590;2023-09-19T01:17:07;99367.09;;;15.51;87.36
80945;BME280;70400;50.934;11.590;2023-09-19T01:18:10;99386.50;;;15.52;87.40
80945;BME280;70400;50.934;11.590;2023-09-19T01:19:29;99376.91;;;15.51;86.76
80945;BME280;70400;50.934;11.590;2023-09-19T01:20:41;99385.31;;;15.54;87.20
80945;BME280;70400;50.934;11.590;2023-09-19T01:21:48;99390.28;;;15.57;86.98
80945;BME280;70400;50.934;11.590;2023-09-19T01:25:13;99385.63;;;15.66;86.27
80945;BME280;70400;50.934;11.590;2023-09-19T01:28:04;99395.41;;;15.80;85.49
80945;BME280;70400;50.934;11.590;2023-09-19T01:29:39;99391.16;;;15.86;85.11
80945;BME280;70400;50.934;11.590;2023-09-19T01:30:32;99394.34;;;15.75;85.50
80945;BME280;70400;50.934;11.590;2023-09-19T01:31:29;99393.50;;;15.74;85.80
80945;BME280;70400;50.934;11.590;2023-09-19T01:32:25;99384.97;;;15.79;85.27
80945;BME280;70400;50.934;11.590;2023-09-19T01:33:16;99389.72;;;15.83;85.49
80945;BME280;70400;50.934;11.590;2023-09-19T01:34:08;99390.38;;;15.92;85.43
80945;BME280;70400;50.934;11.590;2023-09-19T01:34:59;99385.22;;;16.12;84.86
80945;BME280;70400;50.934;11.590;2023-09-19T01:35:54;99389.47;;;16.06;84.92
80945;BME280;70400;50.934;11.590;2023-09-19T01:36:50;99390.69;;;16.04;84.42
80945;BME280;70400;50.934;11.590;2023-09-19T01:37:40;99385.13;;;15.99;84.48
80945;BME280;70400;50.934;11.590;2023-09-19T01:38:35;99384.25;;;15.92;84.93
80945;BME280;70400;50.934;11.590;2023-09-19T01:39:26;99391.78;;;15.88;84.69
80945;BME280;70400;50.934;11.590;2023-09-19T01:40:18;99394.63;;;15.87;84.80
80945;BME280;70400;50.934;11.590;2023-09-19T01:41:14;99395.53;;;15.94;84.76
80945;BME280;70400;50.934;11.590;2023-09-19T01:42:42;99406.78;;;15.96;84.46
80945;BME280;70400;50.934;11.590;2023-09-19T01:43:42;99402.22;;;15.90;84.68
80945;BME280;70400;50.934;11.590;2023-09-19T01:46:44;99402.38;;;16.10;83.63
80945;BME280;70400;50.934;11.590;2023-09-19T01:47:52;99403.25;;;16.17;83.30
80945;BME280;70400;50.934;11.590;2023-09-19T01:51:08;99400.91;;;16.28;81.95
80945;BME280;70400;50.934;11.590;2023-09-19T01:52:07;99404.28;;;16.50;81.00
80945;BME280;70400;50.934;11.590;2023-09-19T01:53:13;99406.72;;;16.45;81.54
80945;BME280;70400;50.934;11.590;2023-09-19T01:54:11;99398.84;;;16.31;81.89
80945;BME280;70400;50.934;11.590;2023-09-19T01:55:08;99398.66;;;16.32;81.62
80945;BME280;70400;50.934;11.590;2023-09-19T01:56:00;99401.25;;;16.25;81.98
80945;BME280;70400;50.934;11.590;2023-09-19T01:57:27;99406.63;;;16.32;81.88
80945;BME280;70400;50.934;11.590;2023-09-19T01:58:39;99402.72;;;16.28;81.80
80945;BME280;70400;50.934;11.590;2023-09-19T01:59:49;99409.06;;;16.27;82.05
80945;BME280;70400;50.934;11.590;2023-09-19T02:00:42;99403.31;;;16.23;82.27
80945;BME280;70400;50.934;11.590;2023-09-19T02:01:36;99406.41;;;16.27;82.16
80945;BME280;70400;50.934;11.590;2023-09-19T02:02:29;99412.94;;;16.24;82.16
80945;BME280;70400;50.934;11.590;2023-09-19T02:03:21;99407.03;;;16.29;82.10
80945;BME280;70400;50.934;11.590;2023-09-19T02:04:15;99410.91;;;16.26;81.95
80945;BME280;70400;50.934;11.590;2023-09-19T02:05:06;99416.47;;;16.32;81.31
80945;BME280;70400;50.934;11.590;2023-09-19T02:05:57;99421.16;;;16.30;81.51
80945;BME280;70400;50.934;11.590;2023-09-19T02:06:48;99418.44;;;16.23;81.76
80945;BME280;70400;50.934;11.590;2023-09-19T02:07:39;99422.13;;;16.22;82.10
80945;BME280;70400;50.934;11.590;2023-09-19T02:08:31;99421.72;;;16.25;81.90
80945;BME280;70400;50.934;11.590;2023-09-19T02:09:24;99418.31;;;16.31;81.44
80945;BME280;70400;50.934;11.590;2023-09-19T02:10:15;99419.72;;;16.27;81.39
80945;BME280;70400;50.934;11.590;2023-09-19T02:11:06;99418.81;;;16.48;81.13
80945;BME280;70400;50.934;11.590;2023-09-19T02:11:57;99421.06;;;16.51;80.73
80945;BME280;70400;50.934;11.590;2023-09-19T02:12:50;99424.78;;;16.50;80.36
80945;BME280;70400;50.934;11.590;2023-09-19T02:13:42;99420.59;;;16.41;80.56
80945;BME280;70400;50.934;11.590;2023-09-19T02:14:34;99421.63;;;16.40;80.69
80945;BME280;70400;50.934;11.590;2023-09-19T02:15:26;99415.91;;;16.43;80.57
80945;BME280;70400;50.934;11.590;2023-09-19T02:16:18;99412.53;;;16.27;81.10
80945;BME280;70400;50.934;11.590;2023-09-19T02:17:11;99417.94;;;16.41;80.90
80945;BME280;70400;50.934;11.590;2023-09-19T02:18:03;99419.75;;;16.34;80.86
80945;BME280;70400;50.934;11.590;2023-09-19T02:18:54;99425.84;;;16.27;80.94
80945;BME280;70400;50.934;11.590;2023-09-19T02:19:45;99424.44;;;16.32;81.05
80945;BME280;70400;50.934;11.590;2023-09-19T02:20:37;99425.09;;;16.34;80.82
80945;BME280;70400;50.934;11.590;2023-09-19T02:21:28;99418.91;;;16.33;80.52
80945;BME280;70400;50.934;11.590;2023-09-19T02:22:22;99417.69;;;16.29;80.85
80945;BME280;70400;50.934;11.590;2023-09-19T02:23:13;99426.06;;;16.26;81.03
80945;BME280;70400;50.934;11.590;2023-09-19T02:24:04;99431.97;;;16.28;80.64
80945;BME280;70400;50.934;11.590;2023-09-19T02:24:55;99421.69;;;16.18;81.31
80945;BME280;70400;50.934;11.590;2023-09-19T02:25:56;99424.97;;;16.20;81.27
80945;BME280;70400;50.934;11.590;2023-09-19T02:26:54;99429.28;;;16.21;81.09
80945;BME280;70400;50.934;11.590;2023-09-19T02:27:46;99423.34;;;16.19;81.35
80945;BME280;70400;50.934;11.590;2023-09-19T02:28:36;99422.13;;;16.22;80.81
80945;BME280;70400;50.934;11.590;2023-09-19T02:29:27;99419.66;;;16.20;80.89
80945;BME280;70400;50.934;11.590;2023-09-19T02:30:19;99418.44;;;16.23;81.28
80945;BME280;70400;50.934;11.590;2023-09-19T02:31:13;99423.16;;;16.21;81.12
80945;BME280;70400;50.934;11.590;2023-09-19T02:32:05;99424.59;;;16.23;81.14
80945;BME280;70400;50.934;11.590;2023-09-19T02:32:57;99422.53;;;16.19;81.16
80945;BME280;70400;50.934;11.590;2023-09-19T02:33:48;99418.81;;;16.13;81.18
80945;BME280;70400;50.934;11.590;2023-09-19T02:34:39;99423.91;;;16.15;81.24
80945;BME280;70400;50.934;11.590;2023-09-19T02:35:30;99420.50;;;16.21;81.05
80945;BME280;70400;50.934;11.590;2023-09-19T02:36:26;99418.59;;;16.15;81.02
80945;BME280;70400;50.934;11.590;2023-09-19T02:37:17;99419.56;;;16.07;81.32
80945;BME280;70400;50.934;11.590;2023-09-19T02:38:10;99424.97;;;16.20;80.91
80945;BME280;70400;50.934;11.590;2023-09-19T02:39:03;99424.00;;;16.28;80.42
80945;BME280;70400;50.934;11.590;2023-09-19T02:39:56;99424.41;;;16.25;80.58
80945;BME280;70400;50.934;11.590;2023-09-19T02:40:47;99427.44;;;16.22;80.59
80945;BME280;70400;50.934;11.590;2023-09-19T02:41:38;99417.59;;;16.16;80.60
80945;BME280;70400;50.934;11.590;2023-09-19T02:42:29;99427.78;;;16.12;81.17
80945;BME280;70400;50.934;11.590;2023-09-19T02:43:22;99430.00;;;16.09;80.91
80945;BME280;70400;50.934;11.590;2023-09-19T02:44:13;99426.16;;;16.11;80.87
80945;BME280;70400;50.934;11.590;2023-09-19T02:45:05;99435.34;;;16.09;81.30
80945;BME280;70400;50.934;11.590;2023-09-19T02:45:56;99435.91;;;16.04;81.36
80945;BME280;70400;50.934;11.590;2023-09-19T02:46:48;99433.66;;;16.08;81.64
80945;BME280;70400;50.934;11.590;2023-09-19T02:47:42;99437.53;;;16.05;81.35
80945;BME280;70400;50.934;11.590;2023-09-19T02:48:33;99441.72;;;16.14;81.04
80945;BME280;70400;50.934;11.590;2023-09-19T02:49:26;99438.81;;;16.09;81.14
80945;BME280;70400;50.934;11.590;2023-09-19T02:50:17;99441.06;;;16.12;80.82
80945;BME280;70400;50.934;11.590;2023-09-19T02:51:08;99438.66;;;16.17;80.77
80945;BME280;70400;50.934;11.590;2023-09-19T02:51:59;99436.81;;;16.18;80.53
80945;BME280;70400;50.934;11.590;2023-09-19T02:52:50;99438.09;;;16.22;80.46
80945;BME280;70400;50.934;11.590;2023-09-19T02:53:41;99433.66;;;16.29;80.54
80945;BME280;70400;50.934;11.590;2023-09-19T02:54:33;99435.25;;;16.23;80.73
80945;BME280;70400;50.934;11.590;2023-09-19T02:55:24;99436.06;;;16.24;80.58
80945;BME280;70400;50.934;11.590;2023-09-19T02:56:15;99439.16;;;16.27;80.03
80945;BME280;70400;50.934;11.590;2023-09-19T02:57:07;99437.75;;;16.32;80.05
80945;BME280;70400;50.934;11.590;2023-09-19T02:57:58;99434.28;;;16.31;79.88
80945;BME280;70400;50.934;11.590;2023-09-19T02:58:49;99440.44;;;16.38;79.75
80945;BME280;70400;50.934;11.590;2023-09-19T02:59:40;99434.06;;;16.33;80.04
80945;BME280;70400;50.934;11.590;2023-09-19T03:00:33;99439.59;;;16.31;79.78
80945;BME280;70400;50.934;11.590;2023-09-19T03:01:26;99436.53;;;16.34;79.74
80945;BME280;70400;50.934;11.590;2023-09-19T03:02:19;99437.41;;;16.41;79.33
80945;BME280;70400;50.934;11.590;2023-09-19T03:03:10;99443.31;;;16.37;79.50
80945;BME280;70400;50.934;11.590;2023-09-19T03:04:02;99446.78;;;16.37;79.58
80945;BME280;70400;50.934;11.590;2023-09-19T03:04:53;99445.97;;;16.37;79.77
80945;BME280;70400;50.934;11.590;2023-09-19T03:05:44;99448.44;;;16.38;79.18
80945;BME280;70400;50.934;11.590;2023-09-19T03:06:40;99447.19;;;16.34;79.46
80945;BME280;70400;50.934;11.590;2023-09-19T03:07:31;99447.13;;;16.27;79.80
80945;BME280;70400;50.934;11.590;2023-09-19T03:08:22;99458.34;;;16.23;79.92
80945;BME280;70400;50.934;11.590;2023-09-19T03:09:14;99454.88;;;16.22;80.18
80945;BME280;70400;50.934;11.590;2023-09-19T03:10:09;99452.78;;;16.18;80.44
80945;BME280;70400;50.934;11.590;2023-09-19T03:10:59;99450.56;;;16.21;80.79
80945;BME280;70400;50.934;11.590;2023-09-19T03:11:51;99451.63;;;16.27;80.42
80945;BME280;70400;50.934;11.590;2023-09-19T03:12:42;99452.03;;;16.24;80.02
80945;BME280;70400;50.934;11.590;2023-09-19T03:13:33;99452.06;;;16.31;79.98
80945;BME280;70400;50.934;11.590;2023-09-19T03:14:24;99449.59;;;16.29;79.87
80945;BME280;70400;50.934;11.590;2023-09-19T03:15:16;99452.84;;;16.24;79.93
80945;BME280;70400;50.934;11.590;2023-09-19T03:16:09;99454.13;;;16.28;80.12
80945;BME280;70400;50.934;11.590;2023-09-19T03:17:01;99455.19;;;16.34;79.82
80945;BME280;70400;50.934;11.590;2023-09-19T03:17:55;99452.91;;;16.31;80.35
80945;BME280;70400;50.934;11.590;2023-09-19T03:18:48;99457.78;;;16.27;80.08
80945;BME280;70400;50.934;11.590;2023-09-19T03:19:40;99452.69;;;16.33;79.88
80945;BME280;70400;50.934;11.590;2023-09-19T03:20:31;99450.44;;;16.30;80.00
80945;BME280;70400;50.934;11.590;2023-09-19T03:21:22;99450.28;;;16.38;79.92
80945;BME280;70400;50.934;11.590;2023-09-19T03:22:14;99451.88;;;16.32;79.92
80945;BME280;70400;50.934;11.590;2023-09-19T03:23:05;99461.41;;;16.48;79.78
80945;BME280;70400;50.934;11.590;2023-09-19T03:23:58;99461.56;;;16.40;79.84
80945;BME280;70400;50.934;11.590;2023-09-19T03:24:49;99454.88;;;16.50;79.16
80945;BME280;70400;50.934;11.590;2023-09-19T03:25:40;99461.63;;;16.53;78.95
80945;BME280;70400;50.934;11.590;2023-09-19T03:26:32;99462.03;;;16.50;79.02
80945;BME280;70400;50.934;11.590;2023-09-19T03:27:24;99460.41;;;16.49;78.99
80945;BME280;70400;50.934;11.590;2023-09-19T03:28:15;99454.91;;;16.57;79.00
80945;BME280;70400;50.934;11.590;2023-09-19T03:29:06;99467.84;;;16.60;78.69
80945;BME280;70400;50.934;11.590;2023-09-19T03:29:58;99467.06;;;16.66;78.55
80945;BME280;70400;50.934;11.590;2023-09-19T03:31:03;99469.28;;;16.63;78.51
80945;BME280;70400;50.934;11.590;2023-09-19T03:31:56;99466.38;;;16.58;78.99
80945;BME280;70400;50.934;11.590;2023-09-19T03:32:47;99473.22;;;16.67;78.47
80945;BME280;70400;50.934;11.590;2023-09-19T03:33:41;99467.66;;;16.62;78.81
80945;BME280;70400;50.934;11.590;2023-09-19T03:34:32;99473.00;;;16.68;78.50
80945;BME280;70400;50.934;11.590;2023-09-19T03:35:24;99459.66;;;16.62;78.67
80945;BME280;70400;50.934;11.590;2023-09-19T03:36:16;99463.63;;;16.44;79.03
80945;BME280;70400;50.934;11.590;2023-09-19T03:37:07;99466.31;;;16.44;79.18
80945;BME280;70400;50.934;11.590;2023-09-19T03:37:58;99477.94;;;16.43;79.35
80945;BME280;70400;50.934;11.590;2023-09-19T03:38:50;99467.06;;;16.38;79.53
80945;BME280;70400;50.934;11.590;2023-09-19T03:39:41;99471.72;;;16.30;79.77
80945;BME280;70400;50.934;11.590;2023-09-19T03:40:31;99471.28;;;16.26;80.00
80945;BME280;70400;50.934;11.590;2023-09-19T03:41:22;99476.41;;;16.27;80.06
80945;BME280;70400;50.934;11.590;2023-09-19T03:42:14;99470.41;;;16.19;79.79
80945;BME280;70400;50.934;11.590;2023-09-19T03:43:07;99475.28;;;16.15;80.52
80945;BME280;70400;50.934;11.590;2023-09-19T03:43:58;99478.28;;;16.05;80.77
80945;BME280;70400;50.934;11.590;2023-09-19T03:44:49;99473.81;;;16.13;80.65
80945;BME280;70400;50.934;11.590;2023-09-19T03:45:40;99474.66;;;16.13;81.00
80945;BME280;70400;50.934;11.590;2023-09-19T03:46:32;99474.44;;;16.15;80.83
80945;BME280;70400;50.934;11.590;2023-09-19T03:47:23;99472.38;;;16.10;80.94
80945;BME280;70400;50.934;11.590;2023-09-19T03:48:15;99467.19;;;16.02;81.13
80945;BME280;70400;50.934;11.590;2023-09-19T03:49:06;99470.56;;;16.11;81.12
80945;BME280;70400;50.934;11.590;2023-09-19T03:49:57;99469.84;;;16.02;81.24
80945;BME280;70400;50.934;11.590;2023-09-19T03:50:48;99462.81;;;15.94;81.39
80945;BME280;70400;50.934;11.590;2023-09-19T03:51:39;99460.94;;;15.88;81.64
80945;BME280;70400;50.934;11.590;2023-09-19T03:52:32;99460.72;;;15.90;81.45
80945;BME280;70400;50.934;11.590;2023-09-19T03:53:23;99466.25;;;15.88;81.60
80945;BME280;70400;50.934;11.590;2023-09-19T03:54:14;99464.03;;;15.92;81.67
80945;BME280;70400;50.934;11.590;2023-09-19T03:55:05;99460.28;;;15.86;81.80
80945;BME280;70400;50.934;11.590;2023-09-19T03:55:56;99470.16;;;15.92;81.40
80945;BME280;70400;50.934;11.590;2023-09-19T03:56:47;99464.41;;;15.89;81.45
80945;BME280;70400;50.934;11.590;2023-09-19T03:57:38;99468.53;;;15.91;81.67
80945;BME280;70400;50.934;11.590;2023-09-19T03:58:30;99467.63;;;15.84;81.53
80945;BME280;70400;50.934;11.590;2023-09-19T03:59:21;99465.94;;;15.76;82.33
80945;BME280;70400;50.934;11.590;2023-09-19T04:00:12;99474.94;;;15.75;82.32
80945;BME280;70400;50.934;11.590;2023-09-19T04:01:06;99472.00;;;15.70;82.85
80945;BME280;70400;50.934;11.590;2023-09-19T04:02:00;99478.03;;;15.64;82.90
80945;BME280;70400;50.934;11.590;2023-09-19T04:02:51;99483.09;;;15.59;83.38
80945;BME280;70400;50.934;11.590;2023-09-19T04:03:43;99485.50;;;15.54;83.45
80945;BME280;70400;50.934;11.590;2023-09-19T04:04:37;99474.59;;;15.49;83.90
80945;BME280;70400;50.934;11.590;2023-09-19T04:05:28;99481.94;;;15.47;84.51
80945;BME280;70400;50.934;11.590;2023-09-19T04:06:19;99482.41;;;15.50;84.55
80945;BME280;70400;50.934;11.590;2023-09-19T04:07:10;99483.84;;;15.53;84.44
80945;BME280;70400;50.934;11.590;2023-09-19T04:08:01;99490.16;;;15.52;84.07
80945;BME280;70400;50.934;11.590;2023-09-19T04:08:52;99494.75;;;15.58;83.40
80945;BME280;70400;50.934;11.590;2023-09-19T04:09:43;99490.25;;;15.58;83.13
80945;BME280;70400;50.934;11.590;2023-09-19T04:10:34;99499.97;;;15.51;83.61
80945;BME280;70400;50.934;11.590;2023-09-19T04:11:25;99495.97;;;15.40;83.84
80945;BME280;70400;50.934;11.590;2023-09-19T04:12:16;99499.44;;;15.41;84.13
80945;BME280;70400;50.934;11.590;2023-09-19T04:13:12;99499.38;;;15.34;84.02
80945;BME280;70400;50.934;11.590;2023-09-19T04:14:03;99502.75;;;15.43;84.40
80945;BME280;70400;50.934;11.590;2023-09-19T04:14:55;99497.41;;;15.73;83.57
80945;BME280;70400;50.934;11.590;2023-09-19T04:15:46;99500.50;;;15.76;82.17
80945;BME280;70400;50.934;11.590;2023-09-19T04:16:37;99497.47;;;15.64;82.97
80945;BME280;70400;50.934;11.590;2023-09-19T04:17:28;99495.72;;;15.57;83.31
80945;BME280;70400;50.934;11.590;2023-09-19T04:18:19;99499.97;;;15.51;83.28
80945;BME280;70400;50.934;11.590;2023-09-19T04:19:11;99498.25;;;15.44;83.76
80945;BME280;70400;50.934;11.590;2023-09-19T04:20:02;99496.78;;;15.41;83.58
80945;BME280;70400;50.934;11.590;2023-09-19T04:20:58;99499.72;;;15.31;84.22
80945;BME280;70400;50.934;11.590;2023-09-19T04:21:48;99499.00;;;15.37;84.06
80945;BME280;70400;50.934;11.590;2023-09-19T04:22:39;99503.44;;;15.52;83.17
80945;BME280;70400;50.934;11.590;2023-09-19T04:23:30;99509.97;;;15.49;83.44
80945;BME280;70400;50.934;11.590;2023-09-19T04:24:21;99503.19;;;15.47;83.40
80945;BME280;70400;50.934;11.590;2023-09-19T04:25:12;99513.75;;;15.40;83.65
80945;BME280;70400;50.934;11.590;2023-09-19T04:26:03;99510.63;;;15.36;83.90
80945;BME280;70400;50.934;11.590;2023-09-19T04:26:57;99500.59;;;15.32;84.08
80945;BME280;70400;50.934;11.590;2023-09-19T04:27:49;99510.75;;;15.28;83.94
80945;BME280;70400;50.934;11.590;2023-09-19T04:28:40;99512.41;;;15.29;83.81
80945;BME280;70400;50.934;11.590;2023-09-19T04:29:31;99509.81;;;15.36;83.92
80945;BME280;70400;50.934;11.590;2023-09-19T04:30:22;99512.56;;;15.43;83.45
80945;BME280;70400;50.934;11.590;2023-09-19T04:31:13;99514.28;;;15.50;83.66
80945;BME280;70400;50.934;11.590;2023-09-19T04:32:04;99514.66;;;15.47;83.64
80945;BME280;70400;50.934;11.590;2023-09-19T04:32:56;99509.63;;;15.37;83.25
80945;BME280;70400;50.934;11.590;2023-09-19T04:33:47;99511.28;;;15.38;83.79
80945;BME280;70400;50.934;11.590;2023-09-19T04:34:38;99514.75;;;15.39;83.64
80945;BME280;70400;50.934;11.590;2023-09-19T04:35:29;99530.25;;;15.35;83.75
80945;BME280;70400;50.934;11.590;2023-09-19T04:36:22;99515.81;;;15.59;83.32
80945;BME280;70400;50.934;11.590;2023-09-19T04:37:26;99517.53;;;15.67;82.25
80945;BME280;70400;50.934;11.590;2023-09-19T04:38:18;99516.91;;;15.65;82.72
80945;BME280;70400;50.934;11.590;2023-09-19T04:39:10;99519.38;;;15.67;82.33
80945;BME280;70400;50.934;11.590;2023-09-19T04:40:08;99511.94;;;15.62;82.40
80945;BME280;70400;50.934;11.590;2023-09-19T04:41:09;99518.09;;;15.62;82.64
80945;BME280;70400;50.934;11.590;2023-09-19T04:41:59;99516.44;;;15.61;81.93
80945;BME280;70400;50.934;11.590;2023-09-19T04:42:54;99519.84;;;15.70;82.32
80945;BME280;70400;50.934;11.590;2023-09-19T04:43:48;99518.84;;;15.56;81.84
80945;BME280;70400;50.934;11.590;2023-09-19T04:44:41;99526.16;;;15.54;82.08
80945;BME280;70400;50.934;11.590;2023-09-19T04:45:33;99522.06;;;15.52;82.47
80945;BME280;70400;50.934;11.590;2023-09-19T04:46:23;99525.91;;;15.49;82.43
80945;BME280;70400;50.934;11.590;2023-09-19T04:47:14;99532.78;;;15.44;82.74
80945;BME280;70400;50.934;11.590;2023-09-19T04:48:07;99537.13;;;15.45;83.15
80945;BME280;70400;50.934;11.590;2023-09-19T04:48:59;99532.53;;;15.38;82.97
80945;BME280;70400;50.934;11.590;2023-09-19T04:49:49;99538.31;;;15.42;83.07